Time;durP1;ratioP1;P1;durP2;ratioP2;P2;SDS_P1;SDS_P2;PMS_P1;PMS_P2;Temp;Humidity;BMP_temperature;BMP_pressure;BME280_temperature;BME280_humidity;BME280_pressure;Samples;Min_cycle;Max_cycle;Signal;HPM_P1;HPM_P2
2022/12/01 00:01:19;;;;;;;3.83;1.35;;;;;;;-2.82;88.37;102081.91;1677243;84;21005;-64
2022/12/01 00:03:46;;;;;;;4.00;1.20;;;;;;;-2.82;87.24;102078.08;1689535;84;21375;-64
2022/12/01 00:06:18;;;;;;;4.95;1.25;;;;;;;-2.80;86.80;102080.98;1705635;82;21055;-70
2022/12/01 00:11:34;;;;;;;4.67;1.00;;;;;;;-2.81;85.25;102078.02;1705822;82;21152;-65
2022/12/01 00:14:01;;;;;;;4.05;1.47;;;;;;;-2.82;82.85;102081.45;1705296;83;21038;-72
2022/12/01 00:16:29;;;;;;;3.92;1.30;;;;;;;-2.81;83.67;102079.73;1705910;84;21116;-64
2022/12/01 00:18:57;;;;;;;2.58;1.00;;;;;;;-2.82;82.62;102080.19;1705794;82;21018;-62
2022/12/01 00:21:24;;;;;;;4.50;0.90;;;;;;;-2.83;82.68;102091.28;1705247;82;20997;-63
2022/12/01 00:23:54;;;;;;;3.08;1.07;;;;;;;-2.84;82.67;102074.73;1705734;83;21084;-63
2022/12/01 00:26:21;;;;;;;4.65;1.15;;;;;;;-2.84;81.30;102083.25;1705158;82;21101;-64
2022/12/01 00:28:54;;;;;;;2.72;1.10;;;;;;;-2.85;81.40;102071.34;1705731;83;21185;-63
2022/12/01 00:31:21;;;;;;;3.70;0.98;;;;;;;-2.87;82.18;102063.38;1705283;82;21045;-64
2022/12/01 00:33:49;;;;;;;2.55;1.17;;;;;;;-2.89;81.97;102057.03;1705914;84;21311;-64
2022/12/01 00:36:16;;;;;;;4.47;1.40;;;;;;;-2.90;82.95;102066.02;1705128;82;21544;-62
2022/12/01 00:38:44;;;;;;;3.30;0.85;;;;;;;-2.95;82.92;102067.47;1705939;83;21081;-65
2022/12/01 00:41:11;;;;;;;4.30;1.62;;;;;;;-2.95;80.97;102068.73;1705435;82;21775;-64
2022/12/01 00:43:39;;;;;;;4.12;1.25;;;;;;;-2.93;80.51;102074.61;1705874;82;21315;-64
2022/12/01 00:46:07;;;;;;;5.67;1.30;;;;;;;-2.93;79.96;102060.58;1705628;84;20999;-71
2022/12/01 00:48:36;;;;;;;4.00;1.55;;;;;;;-2.95;79.87;102057.25;1705548;82;21014;-64
2022/12/01 00:51:04;;;;;;;4.10;1.32;;;;;;;-2.96;80.46;102057.67;1705664;82;21093;-67
2022/12/01 00:53:31;;;;;;;2.83;1.10;;;;;;;-2.98;79.97;102056.91;1705735;82;21252;-65
2022/12/01 00:55:59;;;;;;;3.95;1.30;;;;;;;-2.97;79.91;102060.29;1705473;84;21026;-70
2022/12/01 00:58:26;;;;;;;2.85;1.12;;;;;;;-2.97;78.99;102053.91;1705499;82;21503;-64
2022/12/01 01:01:00;;;;;;;3.52;1.12;;;;;;;-2.99;79.62;102060.35;1705959;84;21007;-64
2022/12/01 01:03:27;;;;;;;3.77;1.25;;;;;;;-3.00;79.77;102051.45;1704935;84;21006;-64
2022/12/01 01:05:55;;;;;;;3.80;1.70;;;;;;;-3.02;78.76;102055.34;1699916;84;21169;-66
2022/12/01 01:08:23;;;;;;;3.15;1.15;;;;;;;-3.02;78.71;102075.76;1700143;82;21649;-65
2022/12/01 01:10:50;;;;;;;2.87;0.90;;;;;;;-3.04;78.77;102058.38;1700499;84;21062;-71
2022/12/01 01:13:18;;;;;;;2.77;0.98;;;;;;;-3.05;79.72;102057.16;1700050;84;21033;-65
2022/12/01 01:15:45;;;;;;;3.30;0.90;;;;;;;-3.08;78.43;102061.09;1700370;84;21602;-72
2022/12/01 01:18:12;;;;;;;3.22;1.20;;;;;;;-3.09;78.74;102058.16;1670604;84;21155;-65
2022/12/01 01:20:41;;;;;;;3.25;0.82;;;;;;;-3.08;79.84;102064.47;1700571;82;21432;-64
2022/12/01 01:23:08;;;;;;;3.15;1.30;;;;;;;-3.07;80.42;102060.20;1699541;82;21103;-65
2022/12/01 01:25:36;;;;;;;3.00;1.10;;;;;;;-3.06;79.41;102060.61;1700760;84;21570;-73
2022/12/01 01:28:04;;;;;;;4.50;1.25;;;;;;;-3.07;78.98;102057.23;1700225;84;21453;-67
2022/12/01 01:30:31;;;;;;;3.58;1.07;;;;;;;-3.07;79.75;102055.09;1700539;84;21502;-66
2022/12/01 01:32:59;;;;;;;3.22;1.20;;;;;;;-3.11;79.26;102049.26;1699821;84;20935;-65
2022/12/01 01:35:27;;;;;;;4.05;1.67;;;;;;;-3.11;79.24;102046.70;1700548;82;21097;-65
2022/12/01 01:37:54;;;;;;;2.80;0.98;;;;;;;-3.11;78.78;102045.88;1700634;84;21047;-69
2022/12/01 01:40:22;;;;;;;3.72;1.05;;;;;;;-3.11;78.58;102048.42;1700082;84;21067;-65
2022/12/01 01:42:50;;;;;;;2.92;0.88;;;;;;;-3.12;78.96;102028.91;1700101;82;21178;-71
2022/12/01 01:45:27;;;;;;;3.02;0.95;;;;;;;-3.10;78.38;102048.84;1700587;84;20907;-65
2022/12/01 01:47:55;;;;;;;3.80;1.02;;;;;;;-3.10;77.19;102047.56;1700156;82;21084;-71
2022/12/01 01:50:24;;;;;;;5.55;1.02;;;;;;;-3.11;77.56;102044.16;1700539;82;21827;-65
2022/12/01 01:53:01;;;;;;;3.10;1.12;;;;;;;-3.10;76.85;102056.49;1700348;84;21002;-70
2022/12/01 01:55:29;;;;;;;3.92;1.10;;;;;;;-3.13;76.53;102037.45;1700669;82;21170;-65
2022/12/01 01:57:56;;;;;;;2.00;0.68;;;;;;;-3.11;76.28;102040.33;1700053;82;21583;-65
2022/12/01 02:00:24;;;;;;;2.47;0.95;;;;;;;-3.11;76.93;102049.70;1700564;82;21117;-65
2022/12/01 02:02:51;;;;;;;2.40;0.85;;;;;;;-3.12;77.25;102049.32;1700171;82;21397;-72
2022/12/01 02:05:27;;;;;;;2.83;1.00;;;;;;;-3.14;77.19;102043.01;1700471;83;21104;-65
2022/12/01 02:07:56;;;;;;;3.30;1.02;;;;;;;-3.13;76.17;102047.66;1700302;82;21252;-64
2022/12/01 02:10:27;;;;;;;3.02;1.00;;;;;;;-3.12;75.24;102042.95;1700497;84;21018;-66
2022/12/01 02:13:19;;;;;;;;;;;;;;;-3.13;75.85;102036.19;1702707;82;21113;-66
2022/12/01 02:16:07;;;;;;;2.65;0.88;;;;;;;-3.15;76.63;102039.21;1700838;83;20181;-65
2022/12/01 02:19:06;;;;;;;2.90;0.78;;;;;;;-3.17;76.59;102033.34;1700674;84;21077;-66
2022/12/01 02:21:52;;;;;;;3.27;1.10;;;;;;;-3.17;76.31;102035.45;1700019;82;21227;-70
2022/12/01 02:25:04;;;;;;;2.42;0.90;;;;;;;-3.20;76.20;102035.55;1700240;84;20946;-71
2022/12/01 02:27:48;;;;;;;5.62;1.20;;;;;;;-3.20;75.58;102030.45;1700704;84;21023;-64
2022/12/01 02:30:47;;;;;;;4.33;1.37;;;;;;;-3.20;75.50;102052.95;1700607;84;21583;-64
2022/12/01 02:33:35;;;;;;;2.95;0.93;;;;;;;-3.22;75.41;102035.61;1668218;85;21073;-67
2022/12/01 02:36:21;;;;;;;3.62;1.00;;;;;;;-3.22;75.38;102021.58;1699031;84;21268;-65
2022/12/01 02:38:58;;;;;;;3.20;1.12;;;;;;;-3.23;74.04;102053.05;1699972;82;21001;-70
2022/12/01 02:41:39;;;;;;;2.15;0.80;;;;;;;-3.24;74.20;102030.98;1693809;84;21022;-66
2022/12/01 02:44:29;;;;;;;4.12;0.90;;;;;;;-3.25;74.20;102039.98;1700876;84;21516;-64
2022/12/01 02:47:03;;;;;;;2.27;0.68;;;;;;;-3.27;74.70;102027.70;1699782;84;21078;-66
2022/12/01 02:49:36;;;;;;;4.75;1.47;;;;;;;-3.27;74.01;102028.98;1700605;84;21256;-65
2022/12/01 02:52:04;;;;;;;2.92;1.10;;;;;;;-3.29;74.07;102034.14;1700377;82;21109;-71
2022/12/01 02:54:32;;;;;;;3.15;0.82;;;;;;;-3.29;73.83;102034.14;1700681;84;21046;-71
2022/12/01 02:56:59;;;;;;;2.72;0.90;;;;;;;-3.27;73.50;102046.83;1700593;84;21614;-65
2022/12/01 02:59:27;;;;;;;3.02;0.98;;;;;;;-3.28;73.51;102032.42;1700710;84;21092;-64
2022/12/01 03:02:00;;;;;;;4.33;1.10;;;;;;;-3.29;73.14;102035.42;1700694;84;21246;-69
2022/12/01 03:04:38;;;;;;;2.27;0.82;;;;;;;-3.29;73.07;102034.14;1700877;84;21140;-65
2022/12/01 03:07:46;;;;;;;4.12;0.90;;;;;;;-3.30;71.67;102030.34;1700900;84;22179;-64
2022/12/01 03:10:43;;;;;;;2.50;0.72;;;;;;;-3.31;72.05;102035.89;1699891;84;21425;-65
2022/12/01 03:13:46;;;;;;;2.10;0.72;;;;;;;-3.32;71.19;102032.96;1700435;84;20898;-65
2022/12/01 03:16:27;;;;;;;2.83;1.02;;;;;;;-3.33;70.85;102036.81;1700140;84;21212;-64
2022/12/01 03:19:01;;;;;;;3.85;1.20;;;;;;;-3.34;70.78;102044.91;1700848;83;21531;-72
2022/12/01 03:21:36;;;;;;;4.10;1.05;;;;;;;-3.35;71.40;102044.53;1700876;84;21009;-66
2022/12/01 03:24:16;;;;;;;2.92;0.80;;;;;;;-3.37;71.69;102031.42;1700491;84;21152;-72
2022/12/01 03:26:47;;;;;;;2.15;0.75;;;;;;;-3.40;72.03;102023.45;1700679;83;21022;-71
2022/12/01 03:29:26;;;;;;;3.60;1.00;;;;;;;-3.42;71.40;102012.02;1701089;84;21785;-65
2022/12/01 03:31:57;;;;;;;4.33;1.00;;;;;;;-3.43;70.77;102024.83;1700227;84;20943;-65
2022/12/01 03:34:59;;;;;;;2.67;0.70;;;;;;;-3.45;70.28;102023.61;1701406;84;21145;-65
2022/12/01 03:37:31;;;;;;;;;;;;;;;-3.45;69.40;102041.45;1702861;84;21265;-71
2022/12/01 03:39:58;;;;;;;4.97;0.95;;;;;;;-3.44;69.67;102039.73;1669429;85;20331;-73
2022/12/01 03:42:42;;;;;;;5.92;1.45;;;;;;;-3.45;69.73;102048.25;1668586;85;21338;-66
2022/12/01 03:45:17;;;;;;;5.30;0.80;;;;;;;-3.46;68.57;102040.22;1668731;85;21026;-67
2022/12/01 03:47:44;;;;;;;4.12;1.22;;;;;;;-3.44;67.74;102067.78;1668450;85;21619;-72
2022/12/01 03:50:12;;;;;;;3.95;1.12;;;;;;;-3.45;66.99;102046.97;1668895;85;21422;-64
2022/12/01 03:53:13;;;;;;;2.62;1.00;;;;;;;-3.44;66.67;102048.66;1669217;85;21052;-64
2022/12/01 03:55:41;;;;;;;2.75;0.80;;;;;;;-3.45;65.83;102052.07;1669103;85;21304;-63
2022/12/01 03:58:15;;;;;;;2.77;0.95;;;;;;;-3.45;66.10;102052.07;1669117;85;21012;-64
2022/12/01 04:00:43;;;;;;;2.75;0.78;;;;;;;-3.48;65.95;102046.65;1668525;85;20933;-66
2022/12/01 04:03:19;;;;;;;2.72;0.93;;;;;;;-3.48;64.99;102041.55;1668486;85;22455;-65
2022/12/01 04:05:46;;;;;;;2.25;0.85;;;;;;;-3.47;64.95;102055.12;1668068;85;21020;-65
2022/12/01 04:08:13;;;;;;;2.80;0.90;;;;;;;-3.48;64.76;102048.38;1667923;85;21248;-66
2022/12/01 04:10:41;;;;;;;1.90;0.70;;;;;;;-3.48;64.30;102061.11;1667041;84;21091;-64
2022/12/01 04:13:15;;;;;;;2.90;0.72;;;;;;;-3.48;63.98;102053.47;1667374;84;21115;-67
2022/12/01 04:15:37;;;;;;;4.05;1.32;;;;;;;-3.48;63.29;102049.64;1661921;84;21168;-66
2022/12/01 04:18:05;;;;;;;2.70;0.95;;;;;;;-3.49;63.49;102050.50;1642698;85;21126;-65
2022/12/01 04:20:32;;;;;;;3.08;1.30;;;;;;;-3.48;62.15;102059.84;1642573;85;21987;-71
2022/12/01 04:22:59;;;;;;;2.60;0.80;;;;;;;-3.46;62.43;102064.44;1643881;85;21131;-66
2022/12/01 04:25:27;;;;;;;2.58;0.70;;;;;;;-3.48;62.37;102052.19;1640052;86;21557;-67
2022/12/01 04:27:54;;;;;;;2.00;0.70;;;;;;;-3.48;62.55;102058.56;1641463;85;21553;-65
2022/12/01 04:30:21;;;;;;;2.80;1.00;;;;;;;-3.49;62.98;102064.52;1644500;85;21046;-66
2022/12/01 04:32:48;;;;;;;3.95;1.20;;;;;;;-3.48;62.94;102057.30;1645697;85;21161;-68
2022/12/01 04:35:16;;;;;;;2.77;1.00;;;;;;;-3.51;62.11;102060.76;1629246;85;21102;-65
2022/12/01 04:37:43;;;;;;;4.05;1.10;;;;;;;-3.50;61.29;102085.81;1634541;85;21588;-65
2022/12/01 04:40:11;;;;;;;3.58;1.25;;;;;;;-3.51;60.80;102064.59;1616639;87;21137;-65
2022/12/01 04:42:39;;;;;;;3.62;0.80;;;;;;;-3.50;60.43;102062.42;1646230;85;21161;-71
2022/12/01 04:45:08;;;;;;;2.77;0.78;;;;;;;-3.48;60.55;102061.11;1628892;87;21251;-66
2022/12/01 04:47:36;;;;;;;6.42;2.72;;;;;;;-3.47;60.64;102072.97;1631360;87;21015;-68
2022/12/01 04:50:07;;;;;;;2.80;0.90;;;;;;;-3.47;60.80;102066.59;1613888;88;21135;-65
2022/12/01 04:52:36;;;;;;;3.67;1.30;;;;;;;-3.47;60.73;102075.52;1644212;87;21471;-66
2022/12/01 04:55:05;;;;;;;5.03;1.40;;;;;;;-3.46;61.08;102078.45;1645090;85;22444;-64
2022/12/01 04:57:33;;;;;;;2.33;0.90;;;;;;;-3.46;59.92;102073.36;1644446;86;21293;-64
2022/12/01 05:00:01;;;;;;;3.00;1.15;;;;;;;-3.47;59.73;102076.34;1660687;85;21009;-64
2022/12/01 05:02:28;;;;;;;3.70;0.90;;;;;;;-3.46;60.26;102093.75;1645057;85;21009;-71
2022/12/01 05:04:57;;;;;;;3.87;1.40;;;;;;;-3.48;59.03;102087.88;1651561;85;21111;-64
2022/12/01 05:07:24;;;;;;;2.37;1.07;;;;;;;-3.48;58.71;102089.98;1669628;85;21024;-65
2022/12/01 05:09:53;;;;;;;2.95;0.85;;;;;;;-3.45;58.67;102095.41;1669986;85;21503;-63
2022/12/01 05:12:21;;;;;;;3.05;1.22;;;;;;;-3.39;57.79;102105.43;1670027;84;20895;-70
2022/12/01 05:14:48;;;;;;;2.40;1.15;;;;;;;-3.25;57.12;102103.73;1669507;85;21018;-64
2022/12/01 05:17:15;;;;;;;2.83;0.90;;;;;;;-3.06;56.83;102086.12;1669482;85;21088;-64
2022/12/01 05:22:30;;;;;;;4.55;0.90;;;;;;;-2.59;54.02;102090.05;1669605;84;21279;-64
2022/12/01 05:24:58;;;;;;;3.62;0.95;;;;;;;-2.41;52.76;102096.23;1669715;85;21096;-69
2022/12/01 05:27:25;;;;;;;2.95;1.05;;;;;;;-2.28;51.37;102083.41;1670008;85;21033;-63
2022/12/01 05:29:52;;;;;;;3.47;0.90;;;;;;;-2.22;50.90;102099.80;1669833;84;21097;-62
2022/12/01 05:32:19;;;;;;;2.80;1.00;;;;;;;-2.10;50.31;102092.13;1669457;85;20954;-64
2022/12/01 05:34:46;;;;;;;7.08;1.60;;;;;;;-2.07;49.71;102090.30;1670132;84;21229;-63
2022/12/01 05:37:14;;;;;;;2.83;1.00;;;;;;;-2.16;49.78;102100.01;1669338;85;21049;-70
2022/12/01 05:39:41;;;;;;;3.40;1.10;;;;;;;-2.19;49.76;102095.86;1670105;84;21602;-64
2022/12/01 05:42:08;;;;;;;2.83;1.00;;;;;;;-2.14;49.56;102104.63;1670035;84;20990;-64
2022/12/01 05:44:36;;;;;;;3.50;1.07;;;;;;;-2.15;49.17;102090.20;1669507;85;20954;-65
2022/12/01 05:47:03;;;;;;;2.40;0.90;;;;;;;-2.30;48.74;102080.09;1669884;84;21275;-70
2022/12/01 05:49:31;;;;;;;3.60;1.22;;;;;;;-2.50;48.92;102096.09;1669757;84;22225;-64
2022/12/01 05:51:59;;;;;;;3.62;1.22;;;;;;;-2.66;49.45;102091.14;1668912;85;20999;-63
2022/12/01 05:54:27;;;;;;;3.22;1.00;;;;;;;-2.76;49.56;102108.06;1663952;86;20971;-72
2022/12/01 05:56:55;;;;;;;2.55;0.78;;;;;;;-2.82;49.47;102104.87;1663859;86;22071;-72
2022/12/01 05:59:23;;;;;;;3.62;1.22;;;;;;;-2.89;49.46;102088.09;1666479;84;21313;-64
2022/12/01 06:01:50;;;;;;;3.60;0.95;;;;;;;-2.95;49.33;102096.80;1670143;84;20970;-65
2022/12/01 06:04:18;;;;;;;2.75;0.90;;;;;;;-2.98;49.63;102091.35;1669961;85;21640;-71
2022/12/01 06:06:46;;;;;;;3.52;1.10;;;;;;;-2.98;49.66;102095.63;1668749;85;21097;-65
2022/12/01 06:09:13;;;;;;;3.40;0.82;;;;;;;-2.96;49.70;102098.49;1700138;84;21488;-64
2022/12/01 06:11:41;;;;;;;5.22;1.00;;;;;;;-2.97;49.87;102112.14;1700781;84;21134;-63
2022/12/01 06:14:09;;;;;;;4.35;1.07;;;;;;;-2.96;49.83;102086.19;1700629;84;20947;-65
2022/12/01 06:16:36;;;;;;;2.80;1.00;;;;;;;-2.95;49.81;102107.01;1699924;84;20946;-64
2022/12/01 06:19:04;;;;;;;3.00;1.07;;;;;;;-2.93;49.78;102111.61;1700760;84;22605;-66
2022/12/01 06:21:31;;;;;;;4.47;1.92;;;;;;;-2.91;49.10;102106.02;1700211;84;21003;-64
2022/12/01 06:23:59;;;;;;;4.08;1.20;;;;;;;-2.91;49.03;102108.58;1700735;83;21956;-64
2022/12/01 06:26:26;;;;;;;3.95;1.20;;;;;;;-2.89;48.93;102118.72;1700706;84;21057;-71
2022/12/01 06:28:55;;;;;;;3.35;0.93;;;;;;;-2.85;48.67;102104.97;1700180;84;20958;-64
2022/12/01 06:31:23;;;;;;;4.50;1.40;;;;;;;-2.82;48.51;102101.88;1693881;84;21002;-63
2022/12/01 06:33:51;;;;;;;7.50;1.60;;;;;;;-2.80;48.46;102116.70;1700886;84;21570;-63
2022/12/01 06:36:19;;;;;;;2.98;0.98;;;;;;;-2.78;48.18;102109.81;1700798;84;21267;-70
2022/12/01 06:38:46;;;;;;;4.10;1.37;;;;;;;-2.74;48.08;102124.14;1700199;84;21013;-64
2022/12/01 06:41:15;;;;;;;3.33;1.15;;;;;;;-2.70;48.11;102104.45;1700242;84;20927;-63
2022/12/01 06:43:42;;;;;;;3.33;1.20;;;;;;;-2.66;47.52;102111.12;1700912;84;21046;-63
2022/12/01 06:46:09;;;;;;;2.10;0.80;;;;;;;-2.59;47.35;102100.26;1700933;84;21044;-73
2022/12/01 06:48:37;;;;;;;2.75;0.82;;;;;;;-2.53;47.12;102101.34;1700144;84;21329;-66
2022/12/01 06:51:05;;;;;;;3.15;1.37;;;;;;;-2.48;47.24;102086.23;1700128;84;21156;-65
2022/12/01 06:53:32;;;;;;;3.22;1.00;;;;;;;-2.42;46.40;102089.03;1701031;84;20998;-65
2022/12/01 06:56:03;;;;;;;3.75;1.52;;;;;;;-2.36;46.04;102108.39;1700738;84;20986;-67
2022/12/01 06:58:30;;;;;;;5.53;1.40;;;;;;;-2.33;45.67;102089.97;1700305;84;21070;-66
2022/12/01 07:00:58;;;;;;;3.90;1.17;;;;;;;-2.24;45.80;102098.56;1700443;84;21273;-69
2022/12/01 07:03:26;;;;;;;3.30;1.02;;;;;;;-2.16;45.65;102094.90;1700664;84;21169;-63
2022/12/01 07:05:58;;;;;;;5.15;1.40;;;;;;;-2.10;45.12;102118.96;1692850;84;20961;-65
2022/12/01 07:08:27;;;;;;;3.05;1.30;;;;;;;-2.06;44.63;102088.13;1676845;85;21013;-65
2022/12/01 07:11:03;;;;;;;9.50;1.87;;;;;;;-2.01;44.41;102093.06;1676842;85;20937;-73
2022/12/01 07:13:31;;;;;;;4.25;1.55;;;;;;;-1.93;44.37;102082.55;1676791;85;21164;-67
2022/12/01 07:16:01;;;;;;;5.08;1.80;;;;;;;-1.87;43.59;102090.83;1676386;85;20985;-73
2022/12/01 07:18:29;;;;;;;3.92;1.77;;;;;;;-1.84;43.34;102093.72;1676688;85;21024;-63
2022/12/01 07:21:09;;;;;;;4.65;1.30;;;;;;;-1.81;43.16;102068.05;1676356;85;20994;-63
2022/12/01 07:23:36;;;;;;;4.35;1.25;;;;;;;-1.76;42.94;102071.25;1677021;85;21143;-65
2022/12/01 07:26:10;;;;;;;5.42;1.35;;;;;;;-1.70;42.97;102067.19;1676490;85;22518;-64
2022/12/01 07:28:37;;;;;;;6.85;2.70;;;;;;;-1.60;42.93;102071.48;1676035;85;21568;-66
2022/12/01 07:31:12;;;;;;;8.20;4.17;;;;;;;-1.51;42.80;102059.19;1676931;84;21091;-62
2022/12/01 07:33:40;;;;;;;13.40;6.15;;;;;;;-1.40;42.52;102071.55;1676716;84;21514;-70
2022/12/01 07:36:09;;;;;;;28.50;13.58;;;;;;;-1.36;41.96;102053.91;1676786;85;21060;-63
2022/12/01 07:38:37;;;;;;;19.52;9.00;;;;;;;-1.31;41.91;102057.55;1676376;85;21249;-63
2022/12/01 07:41:06;;;;;;;8.70;4.00;;;;;;;-1.24;41.97;102057.23;1677013;85;21363;-69
2022/12/01 07:43:33;;;;;;;16.85;7.35;;;;;;;-1.13;41.78;102047.02;1676473;84;21540;-69
2022/12/01 07:46:18;;;;;;;11.63;5.37;;;;;;;-1.06;41.73;102056.08;1676450;85;20989;-69
2022/12/01 07:48:45;;;;;;;2.85;1.27;;;;;;;-1.01;41.36;102046.05;1676912;85;21001;-69
2022/12/01 07:51:15;;;;;;;5.70;2.83;;;;;;;-0.94;40.89;102065.00;1676722;85;22470;-69
2022/12/01 07:53:45;;;;;;;5.50;1.75;;;;;;;-0.94;40.95;102036.39;1676700;85;21004;-69
2022/12/01 07:56:12;;;;;;;4.17;1.12;;;;;;;-0.87;41.09;102062.54;1676749;85;20934;-69
2022/12/01 07:58:39;;;;;;;2.58;0.98;;;;;;;-0.81;40.03;102031.56;1676035;84;20942;-69
2022/12/01 08:01:15;;;;;;;5.55;2.10;;;;;;;-0.78;39.79;102035.28;1676853;85;21597;-69
2022/12/01 08:03:43;;;;;;;5.15;1.80;;;;;;;-0.70;40.14;102034.95;1677023;85;21251;-69
2022/12/01 08:06:10;;;;;;;3.15;0.95;;;;;;;-0.55;39.92;102040.69;1676943;84;20934;-70
2022/12/01 08:08:39;;;;;;;3.10;1.07;;;;;;;-0.39;39.52;102038.27;1676393;85;21061;-69
2022/12/01 08:11:12;;;;;;;5.40;1.60;;;;;;;-0.21;39.29;102037.91;1676895;85;21096;-69
2022/12/01 08:13:39;;;;;;;6.30;1.60;;;;;;;0.11;38.62;102030.00;1677025;85;21540;-69
2022/12/01 08:16:10;;;;;;;4.78;1.57;;;;;;;0.37;38.17;102028.31;1676967;85;21313;-69
2022/12/01 08:18:38;;;;;;;7.85;2.70;;;;;;;0.55;37.47;102045.84;1676624;84;21040;-69
2022/12/01 08:21:07;;;;;;;9.15;3.30;;;;;;;0.68;37.37;101999.45;1676472;84;21064;-69
2022/12/01 08:23:34;;;;;;;7.20;1.98;;;;;;;0.86;36.60;102025.09;1677010;85;21601;-68
2022/12/01 08:26:07;;;;;;;7.22;3.10;;;;;;;1.07;36.28;102033.00;1676728;85;21004;-69
2022/12/01 08:28:35;;;;;;;6.33;2.50;;;;;;;1.16;35.91;102013.26;1676715;85;21249;-68
2022/12/01 08:31:21;;;;;;;4.35;2.00;;;;;;;1.29;35.59;102020.33;1676908;85;21497;-69
2022/12/01 08:33:49;;;;;;;5.05;1.90;;;;;;;1.38;34.91;102016.01;1676966;84;20982;-67
2022/12/01 08:36:17;;;;;;;3.27;1.72;;;;;;;1.40;34.50;102011.60;1676543;85;20997;-68
2022/12/01 08:38:46;;;;;;;5.37;1.20;;;;;;;1.35;34.41;102012.31;1676360;84;21071;-69
2022/12/01 08:41:13;;;;;;;5.53;1.60;;;;;;;1.26;34.31;101993.53;1676183;84;21311;-68
2022/12/01 08:43:43;;;;;;;8.68;1.60;;;;;;;1.20;34.27;101996.77;1676352;84;20969;-69
2022/12/01 08:46:11;;;;;;;11.18;7.45;;;;;;;1.29;34.66;101988.20;1675893;84;21743;-68
2022/12/01 08:48:39;;;;;;;4.72;2.85;;;;;;;1.62;34.33;102003.59;1676674;84;21083;-69
2022/12/01 08:51:10;;;;;;;4.83;2.25;;;;;;;1.81;33.29;101974.69;1675942;85;21053;-69
2022/12/01 08:53:40;;;;;;;4.97;1.52;;;;;;;1.89;33.38;101976.84;1676437;85;21230;-69
2022/12/01 08:56:19;;;;;;;4.78;1.50;;;;;;;2.10;33.29;101972.27;1676209;85;20929;-70
2022/12/01 08:58:46;;;;;;;3.67;1.45;;;;;;;2.22;32.43;101963.02;1675010;85;20942;-70
2022/12/01 09:01:15;;;;;;;4.30;1.45;;;;;;;2.25;32.50;101958.53;1676163;84;21837;-70
2022/12/01 09:03:42;;;;;;;4.30;1.70;;;;;;;2.29;32.15;101970.77;1676576;85;21006;-68
2022/12/01 09:06:16;;;;;;;8.68;5.87;;;;;;;2.26;31.73;101976.08;1676037;84;22242;-67
2022/12/01 09:08:43;;;;;;;5.00;2.45;;;;;;;2.09;31.51;101981.73;1676064;85;21554;-68
2022/12/01 09:11:14;;;;;;;6.78;3.22;;;;;;;1.87;31.60;101961.97;1676346;85;21629;-64
2022/12/01 09:13:42;;;;;;;4.80;1.72;;;;;;;1.73;32.17;101968.31;1676690;84;21002;-64
2022/12/01 09:16:14;;;;;;;10.58;1.57;;;;;;;1.60;32.03;101961.28;1676127;85;20970;-67
2022/12/01 09:18:42;;;;;;;4.72;1.05;;;;;;;1.49;32.46;101949.45;1676084;85;21740;-67
2022/12/01 09:21:19;;;;;;;2.27;0.80;;;;;;;1.43;32.57;101942.06;1676392;85;21033;-65
2022/12/01 09:23:46;;;;;;;5.08;2.08;;;;;;;1.43;32.30;101944.17;1676605;85;21069;-65
2022/12/01 09:26:17;;;;;;;7.05;2.83;;;;;;;1.47;32.51;101937.13;1676533;85;22204;-68
2022/12/01 09:28:45;;;;;;;7.17;2.42;;;;;;;1.52;32.69;101927.92;1675765;84;21100;-66
2022/12/01 09:31:12;;;;;;;4.05;1.47;;;;;;;1.68;33.07;101915.41;1676679;85;22096;-65
2022/12/01 09:33:39;;;;;;;3.45;1.57;;;;;;;1.80;32.24;101934.47;1676418;85;20985;-62
2022/12/01 09:36:07;;;;;;;4.10;1.80;;;;;;;1.77;32.32;101981.38;1676620;85;21045;-66
2022/12/01 09:38:35;;;;;;;3.77;1.42;;;;;;;1.63;32.17;101929.41;1675854;85;20961;-70
2022/12/01 09:41:09;;;;;;;2.45;0.80;;;;;;;1.56;32.27;101921.23;1676667;85;22398;-70
2022/12/01 09:43:44;;;;;;;3.62;1.12;;;;;;;1.56;32.45;101932.80;1677247;84;21214;-69
2022/12/01 09:46:18;;;;;;;3.05;1.02;;;;;;;1.72;32.18;101904.97;1676864;85;20894;-69
2022/12/01 09:48:47;;;;;;;3.08;1.10;;;;;;;1.81;31.97;101905.73;1650327;85;21088;-66
2022/12/01 09:51:22;;;;;;;4.10;1.25;;;;;;;1.87;32.23;101918.25;1676940;85;21001;-68
2022/12/01 09:53:52;;;;;;;6.80;1.55;;;;;;;1.89;31.96;101900.98;1676300;84;21531;-68
2022/12/01 09:56:24;;;;;;;4.72;1.87;;;;;;;1.90;31.89;101912.95;1671773;85;22420;-70
2022/12/01 09:59:02;;;;;;;9.48;5.72;;;;;;;1.90;32.12;101912.95;1677229;85;21094;-67
2022/12/01 10:01:38;;;;;;;5.37;2.42;;;;;;;1.99;32.03;101885.87;1676754;84;21056;-69
2022/12/01 10:04:17;;;;;;;4.45;2.27;;;;;;;2.00;31.88;101941.06;1676443;84;21103;-71
2022/12/01 10:07:03;;;;;;;5.62;2.45;;;;;;;1.97;32.08;101894.12;1675692;84;21005;-70
2022/12/01 10:09:41;;;;;;;4.17;1.67;;;;;;;2.02;32.04;101899.84;1680899;84;21175;-69
2022/12/01 10:12:17;;;;;;;7.22;1.00;;;;;;;2.03;31.85;101915.18;1690594;84;21555;-66
2022/12/01 10:14:46;;;;;;;6.35;1.72;;;;;;;2.03;31.72;101919.04;1673784;83;21373;-69
2022/12/01 10:17:24;;;;;;;6.08;1.60;;;;;;;1.99;31.96;101889.73;1675109;84;20968;-64
2022/12/01 10:20:24;;;;;;;3.37;1.40;;;;;;;1.97;31.67;101923.69;1669185;84;21178;-69
2022/12/01 10:23:20;;;;;;;4.30;1.42;;;;;;;1.98;31.84;101897.91;1677717;84;21285;-71
2022/12/01 10:25:53;;;;;;;5.28;1.50;;;;;;;2.02;31.75;101908.39;1680181;83;21039;-68
2022/12/01 10:28:55;;;;;;;3.80;2.08;;;;;;;2.05;31.39;101896.64;1677269;83;21021;-70
2022/12/01 10:31:36;;;;;;;3.87;1.98;;;;;;;2.03;31.52;101885.60;1642463;86;20950;-68
2022/12/01 10:34:14;;;;;;;3.00;1.42;;;;;;;2.08;31.18;101873.30;1666615;84;21045;-69
2022/12/01 10:36:41;;;;;;;4.45;2.27;;;;;;;2.07;30.92;101943.67;1664185;83;21287;-69
2022/12/01 10:39:14;;;;;;;9.28;3.72;;;;;;;2.02;30.96;101895.53;1676177;85;20989;-69
2022/12/01 10:41:42;;;;;;;10.10;5.55;;;;;;;2.12;31.43;101904.81;1677460;84;21502;-67
2022/12/01 10:44:10;;;;;;;3.45;1.52;;;;;;;2.27;31.19;101896.22;1666111;84;21125;-66
2022/12/01 10:46:51;;;;;;;5.50;1.45;;;;;;;2.36;30.81;101897.45;1680838;84;21071;-67
2022/12/01 10:49:19;;;;;;;2.62;0.95;;;;;;;2.38;30.76;101860.86;1671805;84;21300;-68
2022/12/01 10:51:55;;;;;;;5.62;1.45;;;;;;;2.39;30.64;101893.41;1676833;84;21015;-67
2022/12/01 10:54:32;;;;;;;3.05;0.90;;;;;;;2.37;30.58;101884.94;1679183;84;21075;-64
2022/12/01 10:56:59;;;;;;;2.62;1.05;;;;;;;2.35;30.36;101881.62;1674585;85;21064;-66
2022/12/01 10:59:39;;;;;;;2.58;1.02;;;;;;;2.33;30.53;101884.75;1674042;85;21056;-71
2022/12/01 11:02:15;;;;;;;2.92;0.88;;;;;;;2.37;30.71;101895.23;1674391;85;21983;-67
2022/12/01 11:04:45;;;;;;;3.65;1.12;;;;;;;2.42;30.70;101886.78;1674525;85;20964;-66
2022/12/01 11:07:22;;;;;;;30.37;13.28;;;;;;;2.47;30.97;101871.09;1690481;82;20904;-69
2022/12/01 11:10:16;;;;;;;3.37;1.37;;;;;;;2.55;30.84;101894.63;1730787;82;21021;-67
2022/12/01 11:12:47;;;;;;;2.75;1.00;;;;;;;2.61;30.60;101884.80;1695009;83;21047;-71
2022/12/01 11:15:26;;;;;;;2.92;0.98;;;;;;;2.57;30.32;101887.16;1694875;84;21821;-66
2022/12/01 11:18:03;;;;;;;4.95;1.40;;;;;;;2.48;30.40;101899.30;1695623;84;20995;-65
2022/12/01 11:20:34;;;;;;;3.98;1.30;;;;;;;2.32;30.39;101902.41;1693493;84;21076;-71
2022/12/01 11:23:25;;;;;;;4.17;1.05;;;;;;;2.14;30.53;101901.71;1695750;84;28595;-66
2022/12/01 11:26:24;;;;;;;5.85;1.22;;;;;;;1.99;30.54;101880.73;1695353;84;20945;-67
2022/12/01 11:29:06;;;;;;;4.28;1.30;;;;;;;1.82;31.23;101876.52;1730457;82;21182;-64
2022/12/01 11:31:43;;;;;;;2.90;0.98;;;;;;;1.72;31.39;101894.69;1694593;84;21000;-72
2022/12/01 11:34:23;;;;;;;7.15;4.50;;;;;;;1.62;31.48;101893.89;1695733;84;20948;-66
2022/12/01 11:36:53;;;;;;;5.70;1.80;;;;;;;1.56;31.87;101885.25;1683209;83;21061;-67
2022/12/01 11:39:27;;;;;;;3.90;1.50;;;;;;;1.53;31.87;101880.73;1700263;84;21654;-67
2022/12/01 11:41:58;;;;;;;2.05;0.80;;;;;;;1.50;31.97;101880.44;1699631;84;21287;-65
2022/12/01 11:44:25;;;;;;;3.10;1.10;;;;;;;1.48;31.74;101884.00;1700810;83;20895;-65
2022/12/01 11:46:52;;;;;;;2.75;0.80;;;;;;;1.46;31.80;101880.23;1700523;84;22357;-63
2022/12/01 11:49:23;;;;;;;5.28;1.70;;;;;;;1.44;32.01;101892.36;1700123;84;20947;-64
2022/12/01 11:51:52;;;;;;;2.08;0.80;;;;;;;1.41;32.20;101895.91;1701148;83;21918;-64
2022/12/01 11:54:24;;;;;;;3.20;1.10;;;;;;;1.40;32.13;101892.98;1700788;84;22152;-64